Time;durP1;ratioP1;P1;durP2;ratioP2;P2;SDS_P1;SDS_P2;PMS_P1;PMS_P2;Temp;Humidity;BMP_temperature;BMP_pressure;BME280_temperature;BME280_humidity;BME280_pressure;Samples;Min_cycle;Max_cycle;Signal;HPM_P1;HPM_P2
2022/07/26 00:28:55;;;;;;;0.88;0.30;;;;;;;-145.06;100.00;60892.56;5781363;24;20496;-90
2022/07/26 00:36:36;;;;;;;;;;;;;;;;;;;;;
2022/07/26 00:40:13;;;;;;;;;;;;;;;;;;;;;
2022/07/26 00:43:57;;;;;;;;;;;;;;;;;;;;;
2022/07/26 00:54:47;;;;;;;0.57;0.35;;;;;;;-145.06;100.00;60892.56;5809617;23;20008;-89
2022/07/26 01:02:24;;;;;;;0.68;0.35;;;;;;;-145.06;100.00;60892.56;5755465;24;20318;-89
2022/07/26 01:12:51;;;;;;;0.40;0.28;;;;;;;-145.06;100.00;60892.56;5691072;24;20214;-90
2022/07/26 01:20:46;;;;;;;1.02;0.30;;;;;;;19.67;100.00;60892.56;5808915;23;20024;-90
2022/07/26 01:28:02;;;;;;;1.83;0.40;;;;;;;19.52;100.00;60892.56;5701784;24;20465;-89
2022/07/26 01:38:43;;;;;;;0.88;0.40;;;;;;;-145.06;100.00;60892.56;5648945;24;20007;-91
2022/07/26 03:13:35;;;;;;;;;;;;;;;;;;;;;
2022/07/26 04:10:08;;;;;;;1.90;0.50;;;;;;;-145.06;100.00;60892.56;5835018;23;20015;-91
2022/07/26 04:13:37;;;;;;;0.45;0.28;;;;;;;-145.06;100.00;60892.56;5806536;23;20003;-90
2022/07/26 04:19:33;;;;;;;3.80;0.60;;;;;;;-145.06;100.00;60892.56;5854838;23;20415;-92
2022/07/26 04:22:12;;;;;;;2.15;0.65;;;;;;;18.51;100.00;60892.56;5947836;23;20005;-89
2022/07/26 04:24:51;;;;;;;0.60;0.40;;;;;;;-145.06;100.00;60892.56;5947653;23;20524;-88
2022/07/26 04:27:31;;;;;;;2.30;0.68;;;;;;;-145.06;100.00;60892.56;5950446;23;20013;-90
2022/07/26 04:30:11;;;;;;;0.90;0.50;;;;;;;-145.06;100.00;60892.56;5949777;23;20005;-88
2022/07/26 04:33:00;;;;;;;1.20;0.65;;;;;;;-145.06;100.00;60892.56;5949736;23;20001;-89
2022/07/26 04:35:41;;;;;;;0.75;0.38;;;;;;;-145.06;100.00;60892.56;5949544;23;20001;-90
2022/07/26 04:38:24;;;;;;;1.45;0.60;;;;;;;-145.06;100.00;60892.56;5950212;23;20408;-90
2022/07/26 04:41:03;;;;;;;0.88;0.50;;;;;;;-145.06;100.00;60892.56;5949405;23;20363;-90
2022/07/26 04:43:42;;;;;;;1.15;0.88;;;;;;;-145.06;100.00;60892.56;5950508;23;20005;-90
2022/07/26 04:46:30;;;;;;;1.03;0.50;;;;;;;-145.06;100.00;60892.56;5949491;23;20005;-89
2022/07/26 04:49:09;;;;;;;1.85;0.75;;;;;;;18.70;100.00;60892.56;5949441;23;20316;-87
2022/07/26 04:51:48;;;;;;;1.88;0.70;;;;;;;19.78;100.00;60892.56;5949477;23;20005;-87
2022/07/26 04:54:27;;;;;;;0.95;0.50;;;;;;;-145.06;100.00;60892.56;5973643;23;20009;-91
2022/07/26 04:57:06;;;;;;;1.97;0.70;;;;;;;-145.06;100.00;60892.56;5966257;23;20013;-89
2022/07/26 04:59:44;;;;;;;4.57;0.80;;;;;;;18.78;100.00;60892.56;5949633;23;20244;-88
2022/07/26 05:02:24;;;;;;;2.10;0.77;;;;;;;-145.06;100.00;60892.56;5948738;23;20087;-88
2022/07/26 05:05:05;;;;;;;2.30;0.73;;;;;;;-145.06;100.00;60892.56;5948347;23;19997;-89
2022/07/26 05:07:46;;;;;;;3.00;0.85;;;;;;;-145.06;100.00;60892.56;5947870;23;20066;-87
2022/07/26 05:10:34;;;;;;;1.63;0.70;;;;;;;-145.06;100.00;60892.56;5948075;23;20154;-88
2022/07/26 05:13:16;;;;;;;3.03;0.93;;;;;;;-145.06;100.00;60892.56;5947020;23;20316;-92
2022/07/26 05:15:55;;;;;;;1.38;0.75;;;;;;;-145.06;100.00;60892.56;5947968;23;20439;-90
2022/07/26 05:18:34;;;;;;;1.92;0.80;;;;;;;-145.06;100.00;60892.56;5961317;23;20016;-89
2022/07/26 05:21:13;;;;;;;3.10;1.10;;;;;;;-145.06;100.00;60892.56;5976551;23;20005;-90
2022/07/26 05:23:54;;;;;;;1.83;0.90;;;;;;;-145.06;100.00;60892.56;5977678;23;20000;-90
2022/07/26 05:26:33;;;;;;;1.40;0.82;;;;;;;-145.06;100.00;60892.56;5977568;23;20239;-90
2022/07/26 05:29:12;;;;;;;2.50;0.80;;;;;;;-145.06;100.00;60892.56;5977175;23;20454;-88
2022/07/26 05:31:51;;;;;;;2.40;0.77;;;;;;;-145.06;100.00;60892.56;5977036;23;20009;-89
2022/07/26 05:34:30;;;;;;;1.80;0.90;;;;;;;-145.06;100.00;60892.56;5975867;23;20004;-88
2022/07/26 05:37:09;;;;;;;1.40;0.87;;;;;;;-145.06;100.00;60892.56;5972598;23;20004;-89
2022/07/26 05:39:48;;;;;;;2.75;0.73;;;;;;;-145.06;100.00;60892.56;5973093;23;20012;-89
2022/07/26 05:42:27;;;;;;;2.05;0.90;;;;;;;-145.06;100.00;60892.56;5973741;23;20383;-89
2022/07/26 05:45:06;;;;;;;2.00;0.87;;;;;;;-145.06;100.00;60892.56;5972762;23;20005;-88
2022/07/26 05:47:51;;;;;;;4.30;1.20;;;;;;;-145.06;100.00;60892.56;6005705;23;20275;-88
2022/07/26 05:50:31;;;;;;;1.83;0.77;;;;;;;-145.06;100.00;60892.56;5973155;23;20013;-87
2022/07/26 05:53:11;;;;;;;1.55;0.80;;;;;;;-145.06;100.00;60892.56;5973070;23;20498;-88
2022/07/26 05:55:50;;;;;;;1.42;0.80;;;;;;;-145.06;100.00;60892.56;5973476;23;20321;-90
2022/07/26 05:58:29;;;;;;;2.67;1.00;;;;;;;-145.06;100.00;60892.56;5973588;23;20442;-87
2022/07/26 06:01:08;;;;;;;1.65;0.65;;;;;;;-145.06;100.00;60892.56;5973109;23;20013;-87
2022/07/26 06:03:47;;;;;;;0.90;0.70;;;;;;;-145.06;100.00;60892.56;5972887;23;20546;-88
2022/07/26 06:06:26;;;;;;;2.13;0.87;;;;;;;-145.06;100.00;60892.56;5972577;23;20243;-89
2022/07/26 06:09:05;;;;;;;1.48;0.70;;;;;;;-145.06;100.00;60892.56;5973208;23;20310;-89
2022/07/26 06:11:46;;;;;;;2.60;0.93;;;;;;;-145.06;100.00;60892.56;5972875;23;20711;-88
2022/07/26 06:14:25;;;;;;;2.30;1.00;;;;;;;-145.06;100.00;60892.56;5973332;23;20008;-89
2022/07/26 06:17:04;;;;;;;1.33;0.80;;;;;;;-145.06;100.00;60892.56;5972545;23;20036;-87
2022/07/26 06:19:43;;;;;;;4.13;1.33;;;;;;;-145.06;100.00;60892.56;5973513;23;20021;-87
2022/07/26 06:22:23;;;;;;;2.50;1.30;;;;;;;-145.06;100.00;60892.56;5975666;23;20001;-88
2022/07/26 06:25:02;;;;;;;1.45;0.90;;;;;;;-145.06;100.00;60892.56;5974514;23;20004;-88
2022/07/26 06:27:41;;;;;;;1.70;0.80;;;;;;;-145.06;100.00;60892.56;5973909;23;20308;-89
2022/07/26 06:30:20;;;;;;;2.42;1.17;;;;;;;-145.06;100.00;60892.56;5975460;23;20427;-87
2022/07/26 06:32:59;;;;;;;1.43;1.07;;;;;;;-145.06;100.00;60892.56;5976510;23;20024;-88
2022/07/26 06:35:38;;;;;;;4.45;0.90;;;;;;;-145.06;100.00;60892.56;5975928;23;20028;-88
2022/07/26 06:38:17;;;;;;;2.67;1.27;;;;;;;21.08;100.00;60892.56;5975857;23;20438;-87
2022/07/26 06:40:56;;;;;;;1.37;0.90;;;;;;;19.02;100.00;60892.56;5976009;23;20513;-89
2022/07/26 06:43:35;;;;;;;1.13;0.80;;;;;;;-145.06;100.00;60892.56;5975634;23;20327;-89
2022/07/26 06:46:15;;;;;;;2.08;1.00;;;;;;;-145.06;100.00;60892.56;5976209;23;20004;-90
2022/07/26 06:48:54;;;;;;;1.73;1.00;;;;;;;-145.06;100.00;60892.56;5975239;23;20016;-87
2022/07/26 06:51:33;;;;;;;3.75;1.35;;;;;;;-145.06;100.00;60892.56;5976064;23;20081;-90
2022/07/26 06:54:12;;;;;;;3.17;1.00;;;;;;;-145.06;100.00;60892.56;5975590;23;20032;-89
2022/07/26 06:56:51;;;;;;;4.35;1.58;;;;;;;-145.06;100.00;60892.56;5975585;23;20236;-90
2022/07/26 06:59:30;;;;;;;3.05;1.40;;;;;;;-145.06;100.00;60892.56;5975433;23;20012;-88
2022/07/26 07:02:10;;;;;;;2.92;1.52;;;;;;;-145.06;100.00;60892.56;5975584;23;20048;-90
2022/07/26 07:04:49;;;;;;;2.03;1.30;;;;;;;-145.06;100.00;60892.56;5975387;23;20012;-88
2022/07/26 07:07:28;;;;;;;2.73;1.13;;;;;;;-145.06;100.00;60892.56;5975387;23;20012;-89
2022/07/26 07:10:07;;;;;;;2.97;1.55;;;;;;;-145.06;100.00;60892.56;5975650;23;20240;-89
2022/07/26 07:12:46;;;;;;;3.10;1.40;;;;;;;-145.06;100.00;60892.56;5975422;23;20079;-89
2022/07/26 07:15:25;;;;;;;3.67;1.70;;;;;;;-145.06;100.00;60892.56;5975427;23;20004;-89
2022/07/26 07:18:04;;;;;;;2.58;1.58;;;;;;;-145.06;100.00;60892.56;5975177;23;20434;-89
2022/07/26 07:20:43;;;;;;;2.45;1.83;;;;;;;-145.06;100.00;60892.56;5975251;23;20008;-88
2022/07/26 07:23:22;;;;;;;2.97;1.70;;;;;;;-145.06;100.00;60892.56;5974524;23;20004;-89
2022/07/26 07:26:01;;;;;;;4.18;1.90;;;;;;;-145.06;100.00;60892.56;5973553;23;20009;-89
2022/07/26 07:28:40;;;;;;;2.17;1.88;;;;;;;-145.06;100.00;60892.56;5975035;23;20012;-89
2022/07/26 07:31:19;;;;;;;4.03;2.45;;;;;;;-145.06;100.00;60892.56;5975940;23;20009;-90
2022/07/26 07:33:58;;;;;;;4.77;2.40;;;;;;;-145.06;100.00;60892.56;5974848;23;20009;-90
2022/07/26 07:36:37;;;;;;;3.90;2.00;;;;;;;-145.06;100.00;60892.56;5975209;23;20232;-88
2022/07/26 07:39:16;;;;;;;3.38;1.70;;;;;;;-145.06;100.00;60892.56;5975514;23;20410;-91
2022/07/26 07:41:55;;;;;;;2.30;1.58;;;;;;;-145.06;100.00;60892.56;5975547;23;20008;-89
2022/07/26 07:44:34;;;;;;;2.47;2.20;;;;;;;-145.06;100.00;60892.56;5975002;23;20008;-89
2022/07/26 07:47:13;;;;;;;2.70;2.10;;;;;;;-145.06;100.00;60892.56;5975773;23;20000;-90
2022/07/26 07:49:53;;;;;;;3.22;2.33;;;;;;;-145.06;100.00;60892.56;5976120;23;20008;-89
2022/07/26 07:52:32;;;;;;;2.70;1.70;;;;;;;-145.06;100.00;60892.56;5976443;23;20008;-89
2022/07/26 07:55:10;;;;;;;3.15;2.22;;;;;;;-145.06;100.00;60892.56;5976683;23;20426;-89
2022/07/26 07:57:49;;;;;;;3.03;1.97;;;;;;;-145.06;100.00;60892.56;5997735;23;20012;-89
2022/07/26 08:00:29;;;;;;;3.60;2.60;;;;;;;-145.06;100.00;60892.56;5994029;23;20016;-88
2022/07/26 08:03:08;;;;;;;4.75;2.55;;;;;;;-145.06;100.00;60892.56;6009278;23;20004;-87
2022/07/26 08:05:47;;;;;;;3.00;2.15;;;;;;;-145.06;100.00;60892.56;5978655;23;20000;-91
2022/07/26 08:08:26;;;;;;;4.13;2.30;;;;;;;-145.06;100.00;60892.56;5977739;23;20315;-89
2022/07/26 08:11:05;;;;;;;5.00;2.50;;;;;;;-145.06;100.00;60892.56;5977858;23;20012;-90
2022/07/26 08:13:44;;;;;;;5.03;3.08;;;;;;;-145.06;100.00;60892.56;5977789;23;20016;-89
2022/07/26 08:16:23;;;;;;;3.15;2.30;;;;;;;-145.06;100.00;60892.56;5978529;23;20439;-89
2022/07/26 08:19:03;;;;;;;3.03;2.28;;;;;;;-145.06;100.00;60892.56;5970261;23;20114;-88
2022/07/26 08:21:44;;;;;;;3.58;2.30;;;;;;;-145.06;100.00;60892.56;5970097;23;20431;-89
2022/07/26 08:24:23;;;;;;;3.15;2.03;;;;;;;-145.06;100.00;60892.56;5970149;23;20009;-90
2022/07/26 08:27:03;;;;;;;2.13;1.90;;;;;;;-145.06;100.00;60892.56;5970412;23;20399;-90
2022/07/26 08:29:42;;;;;;;2.80;1.83;;;;;;;-145.06;100.00;60892.56;5969750;23;20009;-89
2022/07/26 08:32:21;;;;;;;1.80;1.57;;;;;;;-145.06;100.00;60892.56;5970377;23;20079;-90
2022/07/26 08:35:00;;;;;;;2.30;1.77;;;;;;;-145.06;100.00;60892.56;5970217;23;20229;-89
2022/07/26 08:37:38;;;;;;;3.28;2.00;;;;;;;-145.06;100.00;60892.56;5970269;23;20236;-88
2022/07/26 08:40:17;;;;;;;2.87;1.70;;;;;;;-145.06;100.00;60892.56;5970158;23;20004;-89
2022/07/26 08:42:56;;;;;;;3.88;1.95;;;;;;;-145.06;100.00;60892.56;5970452;23;20544;-89
2022/07/26 08:45:36;;;;;;;3.58;2.10;;;;;;;-145.06;100.00;60892.56;5970132;23;20029;-88
2022/07/26 08:48:15;;;;;;;3.88;2.15;;;;;;;-145.06;100.00;60892.56;5970665;23;20013;-88
2022/07/26 08:50:54;;;;;;;2.85;1.83;;;;;;;-145.06;100.00;60892.56;5970019;23;20009;-88
2022/07/26 08:53:37;;;;;;;4.57;2.42;;;;;;;-145.06;100.00;60892.56;5969924;23;20072;-89
2022/07/26 08:56:16;;;;;;;2.65;1.80;;;;;;;-145.06;100.00;60892.56;5970145;23;20296;-89
2022/07/26 08:58:56;;;;;;;3.42;2.17;;;;;;;-145.06;100.00;60892.56;5970022;23;20009;-88
2022/07/26 09:01:52;;;;;;;4.35;2.00;;;;;;;-145.06;100.00;60892.56;5970197;23;20012;-89
2022/07/26 09:04:35;;;;;;;2.00;1.80;;;;;;;-145.06;100.00;60892.56;5969522;23;20009;-90
2022/07/26 09:07:16;;;;;;;2.85;1.80;;;;;;;-145.06;100.00;60892.56;5970218;23;20028;-89
2022/07/26 09:10:05;;;;;;;2.15;1.60;;;;;;;-145.06;100.00;60892.56;5970103;23;20088;-88
2022/07/26 09:12:44;;;;;;;2.85;1.75;;;;;;;-145.06;100.00;60892.56;5969670;23;20005;-90
2022/07/26 09:15:26;;;;;;;2.30;2.00;;;;;;;-145.06;100.00;60892.56;5969279;23;20424;-89
2022/07/26 09:18:05;;;;;;;4.82;1.92;;;;;;;-145.06;100.00;60892.56;5977552;23;20095;-90
2022/07/26 09:20:46;;;;;;;3.15;1.90;;;;;;;-145.06;100.00;60892.56;5977515;23;20023;-89
2022/07/26 09:23:37;;;;;;;2.35;1.70;;;;;;;-145.06;100.00;60892.56;5974936;23;20009;-89
2022/07/26 09:26:20;;;;;;;1.75;1.50;;;;;;;-145.06;100.00;60892.56;5974006;23;20005;-89
2022/07/26 09:29:08;;;;;;;2.75;1.67;;;;;;;-145.06;100.00;60892.56;5973981;23;20100;-88
2022/07/26 09:31:48;;;;;;;2.15;1.80;;;;;;;-145.06;100.00;60892.56;5977517;23;20079;-88
2022/07/26 09:34:27;;;;;;;2.00;1.60;;;;;;;-145.06;100.00;60892.56;5973989;23;20032;-89
2022/07/26 09:37:06;;;;;;;1.60;1.35;;;;;;;-145.06;100.00;60892.56;5974247;23;20866;-88
2022/07/26 09:39:55;;;;;;;2.05;1.40;;;;;;;-145.06;100.00;60892.56;5974150;23;20012;-89
2022/07/26 09:42:35;;;;;;;2.00;1.50;;;;;;;-145.06;100.00;60892.56;5973946;23;20005;-89
2022/07/26 09:45:16;;;;;;;2.00;1.02;;;;;;;-145.06;100.00;60892.56;5972640;23;20008;-89
2022/07/26 09:47:55;;;;;;;2.80;1.90;;;;;;;-145.06;100.00;60892.56;5972831;23;20091;-88
2022/07/26 09:50:35;;;;;;;1.88;1.40;;;;;;;-145.06;100.00;60892.56;5973451;23;20008;-90
2022/07/26 09:53:13;;;;;;;1.83;1.17;;;;;;;-145.06;100.00;60892.56;5974024;23;20040;-90
2022/07/26 09:55:55;;;;;;;2.38;1.48;;;;;;;-145.06;100.00;60892.56;5973337;23;20239;-89
2022/07/26 09:58:38;;;;;;;2.08;1.58;;;;;;;-145.06;100.00;60892.56;5973145;23;20461;-88
2022/07/26 10:01:17;;;;;;;2.30;1.98;;;;;;;-145.06;100.00;60892.56;5973378;23;20435;-89
2022/07/26 10:03:58;;;;;;;2.30;1.55;;;;;;;-145.06;100.00;60892.56;5947013;23;20388;-88
2022/07/26 10:06:38;;;;;;;3.00;2.30;;;;;;;-145.06;100.00;60892.56;5941379;23;20005;-89
2022/07/26 10:09:18;;;;;;;2.22;1.98;;;;;;;-145.06;100.00;60892.56;5957704;23;20040;-91
2022/07/26 10:11:59;;;;;;;;;;;;;;;-145.06;100.00;60892.56;5968521;23;20028;-89
2022/07/26 10:14:45;;;;;;;1.80;1.70;;;;;;;-145.06;100.00;60892.56;5966958;23;20325;-89
2022/07/26 10:17:39;;;;;;;3.00;1.67;;;;;;;-145.06;100.00;60892.56;5965532;23;20020;-90
2022/07/26 10:20:39;;;;;;;2.60;1.75;;;;;;;-145.06;100.00;60892.56;5966377;23;20046;-88
2022/07/26 10:23:35;;;;;;;1.63;1.52;;;;;;;-145.06;100.00;60892.56;5965617;23;20091;-89
2022/07/26 10:26:35;;;;;;;1.77;1.60;;;;;;;-145.06;100.00;60892.56;5971724;23;20765;-90
2022/07/26 10:29:24;;;;;;;2.28;1.65;;;;;;;-145.06;100.00;60892.56;5953147;23;20020;-89
2022/07/26 10:32:14;;;;;;;3.30;1.60;;;;;;;-145.06;100.00;60892.56;5937693;23;20037;-89
2022/07/26 10:34:53;;;;;;;2.22;1.60;;;;;;;-145.06;100.00;60892.56;5969285;23;20009;-90
2022/07/26 10:37:32;;;;;;;2.40;1.50;;;;;;;-145.06;100.00;60892.56;5966730;23;20312;-90
2022/07/26 10:40:19;;;;;;;1.98;1.67;;;;;;;-145.06;100.00;60892.56;5966884;23;20673;-89
2022/07/26 10:43:09;;;;;;;2.95;2.30;;;;;;;41.86;100.00;60892.56;5967328;23;20000;-88
2022/07/26 10:46:12;;;;;;;2.63;1.83;;;;;;;-145.06;100.00;60892.56;5959190;23;20008;-90
2022/07/26 10:48:56;;;;;;;2.28;2.03;;;;;;;-145.06;100.00;60892.56;5994765;23;20009;-89
2022/07/26 10:51:39;;;;;;;2.20;1.80;;;;;;;-145.06;100.00;60892.56;5966961;23;20048;-89
2022/07/26 10:54:19;;;;;;;1.85;1.55;;;;;;;-145.06;100.00;60892.56;5995666;23;20013;-89
2022/07/26 10:56:58;;;;;;;1.65;1.40;;;;;;;-145.06;100.00;60892.56;5974095;23;20309;-89
2022/07/26 10:59:37;;;;;;;1.42;1.23;;;;;;;-145.06;100.00;60892.56;5966634;23;20127;-90
2022/07/26 11:02:21;;;;;;;1.48;1.10;;;;;;;-145.06;100.00;60892.56;5968931;23;20013;-89
2022/07/26 11:05:14;;;;;;;1.35;1.20;;;;;;;-145.06;100.00;60892.56;5988297;23;20012;-90
2022/07/26 11:08:07;;;;;;;1.60;1.10;;;;;;;-145.06;100.00;60892.56;5984366;23;20020;-89
2022/07/26 11:10:46;;;;;;;1.35;1.10;;;;;;;-145.06;100.00;60892.56;5966891;23;20016;-89
2022/07/26 11:13:25;;;;;;;2.47;0.95;;;;;;;-145.06;100.00;60892.56;5967647;23;20024;-89
2022/07/26 11:16:07;;;;;;;1.42;0.98;;;;;;;-145.06;100.00;60892.56;5973289;23;20001;-89
2022/07/26 11:18:46;;;;;;;1.23;0.80;;;;;;;-145.06;100.00;60892.56;5982428;23;20738;-88
2022/07/26 11:21:25;;;;;;;0.82;0.70;;;;;;;-145.06;100.00;60892.56;6001410;23;20016;-90
2022/07/26 11:24:04;;;;;;;0.70;0.70;;;;;;;-145.06;100.00;60892.56;6023665;23;20345;-90
2022/07/26 11:26:44;;;;;;;;;;;;;;;-145.06;100.00;60892.56;6002767;23;20039;-89
2022/07/26 11:29:33;;;;;;;0.82;0.70;;;;;;;-145.06;100.00;60892.56;6000548;23;19912;-90
2022/07/26 11:32:23;;;;;;;1.92;0.80;;;;;;;-145.06;100.00;60892.56;6001906;23;20004;-89
2022/07/26 11:35:04;;;;;;;0.90;0.85;;;;;;;-145.06;100.00;60892.56;5995910;23;20008;-88
2022/07/26 11:37:52;;;;;;;1.25;0.90;;;;;;;-145.06;100.00;60892.56;6003633;23;20004;-90
2022/07/26 11:40:58;;;;;;;1.75;0.70;;;;;;;-145.06;100.00;60892.56;6003251;23;20319;-89
2022/07/26 11:43:37;;;;;;;1.17;0.60;;;;;;;-145.06;100.00;60892.56;6003441;23;20111;-89
2022/07/26 11:46:18;;;;;;;1.02;0.80;;;;;;;-145.06;100.00;60892.56;6003202;23;20079;-89
2022/07/26 11:48:57;;;;;;;1.75;0.77;;;;;;;-145.06;100.00;60892.56;6003724;23;20007;-89
2022/07/26 11:51:36;;;;;;;1.58;0.75;;;;;;;-145.06;100.00;60892.56;6003383;23;20008;-90
2022/07/26 11:54:15;;;;;;;1.37;0.83;;;;;;;-145.06;100.00;60892.56;5996522;23;20012;-89
2022/07/26 11:57:00;;;;;;;1.48;0.80;;;;;;;-145.06;100.00;60892.56;6003343;23;20171;-90
2022/07/26 11:59:40;;;;;;;1.98;0.90;;;;;;;-145.06;100.00;60892.56;6003216;23;20083;-88
2022/07/26 12:02:20;;;;;;;0.68;0.60;;;;;;;-145.06;100.00;60892.56;6002993;23;20008;-91
2022/07/26 12:05:25;;;;;;;1.23;0.70;;;;;;;-145.06;100.00;60892.56;6003255;23;20012;-90
2022/07/26 12:08:06;;;;;;;1.75;0.80;;;;;;;-145.06;100.00;60892.56;6003502;23;20004;-89
2022/07/26 12:10:53;;;;;;;1.08;0.60;;;;;;;-145.06;100.00;60892.56;6002906;23;20008;-89
2022/07/26 12:13:32;;;;;;;1.60;0.90;;;;;;;-145.06;100.00;60892.56;6003042;23;20012;-88
2022/07/26 12:16:11;;;;;;;1.00;0.80;;;;;;;-145.06;100.00;60892.56;6002819;23;20000;-89
2022/07/26 12:18:50;;;;;;;;;;;;;;;-145.06;100.00;60892.56;5995618;23;20016;-89
2022/07/26 12:21:43;;;;;;;1.00;0.60;;;;;;;-145.06;100.00;60892.56;6016681;23;19943;-91
2022/07/26 12:24:38;;;;;;;1.08;0.60;;;;;;;-145.06;100.00;60892.56;5995168;23;20730;-91
2022/07/26 12:27:23;;;;;;;2.97;0.60;;;;;;;-145.06;100.00;60892.56;5994946;23;20004;-91
2022/07/26 12:30:01;;;;;;;0.77;0.40;;;;;;;-145.06;100.00;60892.56;5988659;23;20017;-90
2022/07/26 12:32:43;;;;;;;0.77;0.45;;;;;;;-145.06;100.00;60892.56;5995567;23;20008;-91
2022/07/26 12:35:34;;;;;;;1.30;0.55;;;;;;;-145.06;100.00;60892.56;5994848;23;20023;-88
2022/07/26 12:38:13;;;;;;;0.40;0.30;;;;;;;-145.06;100.00;60892.56;6005796;23;20027;-90
2022/07/26 12:40:52;;;;;;;0.60;0.30;;;;;;;-145.06;100.00;60892.56;5994813;23;20453;-91
2022/07/26 12:43:40;;;;;;;0.60;0.47;;;;;;;-145.06;100.00;60892.56;5995495;23;20519;-89
2022/07/26 12:46:19;;;;;;;1.08;0.50;;;;;;;-145.06;100.00;60892.56;5994436;23;20321;-92
2022/07/26 12:48:58;;;;;;;2.92;0.43;;;;;;;-145.06;100.00;60892.56;5995228;23;20021;-90
2022/07/26 12:51:37;;;;;;;0.57;0.32;;;;;;;-145.06;100.00;60892.56;5995805;23;20008;-90
2022/07/26 12:54:16;;;;;;;1.52;0.30;;;;;;;-145.06;100.00;60892.56;5995865;23;20004;-89
2022/07/26 12:56:55;;;;;;;0.80;0.60;;;;;;;-145.06;100.00;60892.56;5996188;23;20325;-91
2022/07/26 12:59:34;;;;;;;1.60;0.45;;;;;;;-145.06;100.00;60892.56;5996321;23;20005;-91
2022/07/26 13:02:17;;;;;;;0.68;0.50;;;;;;;-145.06;100.00;60892.56;5995997;23;20012;-91
2022/07/26 13:04:56;;;;;;;0.70;0.40;;;;;;;-145.06;100.00;60892.56;5995757;23;20012;-89
2022/07/26 13:07:36;;;;;;;0.30;0.30;;;;;;;-145.06;100.00;60892.56;5995723;23;20008;-90
2022/07/26 13:10:15;;;;;;;0.40;0.30;;;;;;;-145.06;100.00;60892.56;5995114;23;20079;-89
2022/07/26 13:12:54;;;;;;;0.82;0.50;;;;;;;-145.06;100.00;60892.56;5995396;23;20532;-91
2022/07/26 13:15:33;;;;;;;0.82;0.60;;;;;;;-145.06;100.00;60892.56;5995730;23;20001;-90
2022/07/26 13:18:12;;;;;;;0.60;0.50;;;;;;;-145.06;100.00;60892.56;5995333;23;20008;-89
2022/07/26 13:20:52;;;;;;;0.40;0.40;;;;;;;-145.06;100.00;60892.56;5994546;23;20013;-91
2022/07/26 13:23:31;;;;;;;2.53;0.55;;;;;;;-145.06;100.00;60892.56;5984735;23;20123;-91
2022/07/26 13:26:10;;;;;;;0.70;0.38;;;;;;;-145.06;100.00;60892.56;5989304;23;20017;-90
2022/07/26 13:28:49;;;;;;;0.50;0.40;;;;;;;-145.06;100.00;60892.56;5986865;23;20012;-89
2022/07/26 13:31:28;;;;;;;;;;;;;;;-145.06;100.00;60892.56;5964245;23;20021;-90
2022/07/26 13:34:07;;;;;;;0.50;0.30;;;;;;;-145.06;100.00;60892.56;5958903;23;19912;-90
2022/07/26 13:36:46;;;;;;;0.60;0.25;;;;;;;-145.06;100.00;60892.56;5976500;23;20048;-91
2022/07/26 13:39:26;;;;;;;2.97;0.38;;;;;;;-145.06;100.00;60892.56;5963621;23;20004;-91
2022/07/26 13:42:05;;;;;;;0.40;0.30;;;;;;;-145.06;100.00;60892.56;5966219;23;20040;-90
2022/07/26 13:45:25;;;;;;;0.30;0.20;;;;;;;-145.06;100.00;60892.56;5967595;23;20005;-92
2022/07/26 13:48:14;;;;;;;0.85;0.40;;;;;;;-145.06;100.00;60892.56;5965230;23;20009;-92
2022/07/26 13:51:15;;;;;;;2.08;0.50;;;;;;;-145.06;100.00;60892.56;5965751;23;20068;-91
2022/07/26 13:53:54;;;;;;;2.45;0.52;;;;;;;-145.06;100.00;60892.56;5966429;23;20064;-91
2022/07/26 13:56:35;;;;;;;4.18;0.47;;;;;;;-145.06;100.00;60892.56;5940845;23;20348;-89
2022/07/26 13:59:29;;;;;;;0.50;0.40;;;;;;;-145.06;100.00;60892.56;5964437;23;20117;-91
2022/07/26 14:02:19;;;;;;;;;;;;;;;;;;;;;
2022/07/26 14:04:58;;;;;;;0.40;0.40;;;;;;;-145.06;100.00;60892.56;5975144;23;20009;-90
2022/07/26 14:07:37;;;;;;;1.98;0.40;;;;;;;-145.06;100.00;60892.56;5964844;23;20005;-91
2022/07/26 14:10:17;;;;;;;1.30;0.43;;;;;;;-145.06;100.00;60892.56;5964921;23;20036;-90
2022/07/26 14:12:56;;;;;;;0.88;0.52;;;;;;;-145.06;100.00;60892.56;5966499;23;20005;-91
2022/07/26 14:29:05;;;;;;;;;;;;;;;;;;;;;
2022/07/26 14:31:52;;;;;;;1.02;0.52;;;;;;;-145.06;100.00;60892.56;5999572;23;20008;-92
2022/07/26 15:16:37;;;;;;;0.68;0.47;;;;;;;-145.06;100.00;60892.56;6007003;22;20509;-90
2022/07/26 15:19:57;;;;;;;1.38;0.60;;;;;;;-145.06;100.00;60892.56;5902738;23;20017;-90
2022/07/26 15:22:39;;;;;;;0.60;0.40;;;;;;;-145.06;100.00;60892.56;5976251;23;20028;-89
2022/07/26 15:25:28;;;;;;;1.00;0.40;;;;;;;-145.06;100.00;60892.56;5976120;23;20454;-89
2022/07/26 15:28:11;;;;;;;0.70;0.50;;;;;;;-145.06;100.00;60892.56;5976104;23;20004;-89
2022/07/26 15:31:40;;;;;;;;;;;;;;;;;;;;;
2022/07/26 15:34:22;;;;;;;0.40;0.38;;;;;;;-145.06;100.00;60892.56;6007871;23;20032;-91
2022/07/26 15:37:31;;;;;;;1.58;0.50;;;;;;;-145.06;100.00;60892.56;5976255;23;20001;-88
2022/07/26 15:44:36;;;;;;;0.52;0.30;;;;;;;-145.06;100.00;60892.56;6009085;23;20447;-88
2022/07/26 15:47:19;;;;;;;0.38;0.38;;;;;;;-145.06;100.00;60892.56;5976610;23;20309;-90
2022/07/26 15:49:59;;;;;;;0.60;0.20;;;;;;;-145.06;100.00;60892.56;5976519;23;20020;-90
2022/07/26 15:52:46;;;;;;;0.45;0.28;;;;;;;-145.06;100.00;60892.56;5977582;23;20008;-90
2022/07/26 15:55:29;;;;;;;0.63;0.20;;;;;;;-145.06;100.00;60892.56;5976645;23;20000;-87
2022/07/26 15:58:08;;;;;;;0.55;0.20;;;;;;;-145.06;100.00;60892.56;6006313;23;20005;-86
2022/07/26 16:19:30;;;;;;;0.52;0.20;;;;;;;-145.06;100.00;60892.56;5986899;22;20020;-88
2022/07/26 16:22:09;;;;;;;0.68;0.20;;;;;;;-145.06;100.00;60892.56;5999859;23;20313;-90
2022/07/26 16:24:48;;;;;;;0.20;0.20;;;;;;;-145.06;100.00;60892.56;6011944;23;20009;-89
2022/07/26 16:27:27;;;;;;;0.50;0.38;;;;;;;-145.06;100.00;60892.56;5980179;23;20004;-90
2022/07/26 16:30:06;;;;;;;1.13;0.35;;;;;;;-145.06;100.00;60892.56;5979922;23;20013;-88
2022/07/26 16:32:46;;;;;;;0.60;0.30;;;;;;;-145.06;100.00;60892.56;5978731;23;20607;-89
2022/07/26 16:35:25;;;;;;;;;;;;;;;-145.06;100.00;60892.56;5979220;23;20000;-89
2022/07/26 16:38:06;;;;;;;0.88;0.40;;;;;;;-145.06;100.00;60892.56;5978252;23;19903;-89
2022/07/26 16:41:03;;;;;;;0.30;0.20;;;;;;;-145.06;100.00;60892.56;6011056;23;20005;-92
2022/07/26 16:44:01;;;;;;;0.43;0.35;;;;;;;-145.06;100.00;60892.56;5978849;23;20454;-91
2022/07/26 16:51:13;;;;;;;3.03;0.40;;;;;;;-145.06;100.00;60892.56;6009018;23;20009;-91
2022/07/26 16:54:51;;;;;;;0.90;0.30;;;;;;;-145.06;100.00;60892.56;5977485;23;20037;-90
2022/07/26 16:58:25;;;;;;;;;;;;;;;;;;;;;
2022/07/26 17:12:21;;;;;;;0.30;0.20;;;;;;;-145.06;100.00;60892.56;5836583;23;20007;-91
2022/07/26 17:15:46;;;;;;;;;;;;;;;;;;;;;
2022/07/26 17:23:10;;;;;;;0.50;0.30;;;;;;;-145.06;100.00;60892.56;5863911;23;20018;-91
2022/07/26 17:30:42;;;;;;;0.20;0.20;;;;;;;-145.06;100.00;60892.56;5836516;23;20086;-90
2022/07/26 17:37:33;;;;;;;0.40;0.22;;;;;;;-145.06;100.00;60892.56;5863989;23;20035;-90
2022/07/26 17:41:25;;;;;;;0.75;0.30;;;;;;;-145.06;100.00;60892.56;5976204;23;20000;-90
2022/07/26 17:48:09;;;;;;;0.88;0.20;;;;;;;-145.06;100.00;60892.56;5874536;23;20011;-89
2022/07/26 17:55:35;;;;;;;;;;;;;;;;;;;;;
2022/07/26 17:59:15;;;;;;;;;;;;;;;;;;;;;
2022/07/26 18:02:55;;;;;;;0.35;0.15;;;;;;;-145.06;100.00;60892.56;5938762;23;20421;-91
2022/07/26 18:20:24;;;;;;;0.10;0.10;;;;;;;-145.06;100.00;60892.56;5891501;23;20014;-89
2022/07/26 18:26:25;;;;;;;0.30;0.20;;;;;;;-145.06;100.00;60892.56;5996775;22;20072;-92
2022/07/26 18:29:31;;;;;;;0.65;0.20;;;;;;;-145.06;100.00;60892.56;5977204;23;20009;-90
2022/07/26 18:32:49;;;;;;;0.10;0.10;;;;;;;-145.06;100.00;60892.56;5976038;23;20518;-89
2022/07/26 19:16:15;;;;;;;0.10;0.10;;;;;;;-145.06;100.00;60892.56;5941909;23;20032;31
2022/07/26 19:19:27;;;;;;;0.35;0.20;;;;;;;-145.06;100.00;60892.56;5912795;23;20018;-91